logo
App data

Patrician III

Patrician III - sequel to the award winning game Patrician II - features advanced in-game AI, which adjusts its difficulty based on experience and ability. In this economic sandbox game you can gain wealth and power in multiple ways - what you will do with it is up to you.
Store | Hub | SteamDB
Developer: Ascaron Entertainment ltd. Publisher: Kalypso Media Digital
Genre: RPG, Simulation, Strategy
Languages: English
Tags: Strategy (58), Simulation (52), Trading (37), RPG (33), Economy (32), Management (30), Historical (30)
Category: Single-player
Release date: Nov 18, 2010
Price: $4.99
Score rank: 46% Userscore: 77% Old userscore: 78% Metascore: 75%
Owners: 100,000 .. 200,000
Followers: 1,453
Peak concurrent players yesterday: 12
Playtime in the last 2 weeks: 00:02 (average) 00:02 (median)
Playtime total: 07:32 (average) 00:45 (median)

Steam Spy is still in beta, so expect major bugs.

Owners data:

Access restricted.

This feature is only available to users with special access rights. Sorry.

If you want to proceed, you need to register or log in first and then back Steam Spy on Patreon. Look for Indie or Pro pledge.

Don't forget to use the same email as on Steam Spy!

Audience in 2 weeks:

Access restricted.

This feature is only available to users with special access rights. Sorry.

If you want to proceed, you need to register or log in first and then back Steam Spy on Patreon. Look for Indie or Pro pledge.

Don't forget to use the same email as on Steam Spy!

Peak daily concurrent players:

CCU data courtesy of SteamDB. Used with permission.

Hourly concurrent players:

Daily Twitch stats:

Hourly Twitch stats:

YouTube:

The views data is based on top 50 videos uploaded last week. Actual number of views might be more than the number shown.

The displayed number of videos uploaded yesterday is limited to 50, so if there were more videos uploaded, the number will still show 50.

If the game has commonly used word as its name (like "FEAR" or "Volume") its number of Youtube views might be wrong.

Games similar to this one:

# Game Release date
Price
Score rank
(Userscore / Metascore)
Owners
Players
Playtime (Median)
1 Lazerbait Oct 13, 2016 Free97% (97%)50,000 .. 100,0000%00:00 (00:00)
2 UFHO2 Jun 2, 2015 FreeN/A (N/A)20,000 .. 50,0000%00:00 (00:00)
3 Khet 2.0 Oct 1, 2014 $9.9984% (92%)50,000 .. 100,0000%00:00 (00:00)
4 Codename: Panzers, Phase Two Feb 18, 2016 $14.9980% (91%/80%)0 .. 20,0000%00:00 (00:00)
5 ThreadSpace: Hyperbol Jul 12, 2007 $9.99N/A (N/A)20,000 .. 50,0000%00:00 (00:00)
6 Kohan II: Kings of War Aug 24, 2011 $9.9980% (91%/81%)20,000 .. 50,0000%00:00 (00:00)
7 Sacrifice Aug 19, 2009 $9.9980% (91%/89%)50,000 .. 100,0000%00:00 (00:00)
8 Quar: Battle for Gate 18 Apr 4, 2016 $19.9980% (91%)20,000 .. 50,0000%00:00 (00:00)
9 Warhammer 40,000: Dawn of War – Winter Assault Aug 7, 2007 $12.9977% (90%)500,000 .. 1,000,0000.36%00:09 (00:08)
10 Company of Heroes: Opposing Fronts Sep 24, 2007 $19.9977% (90%/87%)2,000,000 .. 5,000,0000%00:00 (00:00)
11 MoonBase Commander Feb 6, 2014 $5.9977% (90%/77%)0 .. 20,0000%00:00 (00:00)
12 Swords and Soldiers HD Dec 2, 2010 $9.9977% (90%)100,000 .. 200,0000.13%00:14 (00:14)
13 Archon Classic Nov 2, 2010 $9.9974% (89%)20,000 .. 50,0000%00:00 (00:00)
14 X-COM: Apocalypse Sep 4, 2008 $4.9974% (89%)500,000 .. 1,000,0000%00:00 (00:00)
15 Silent Storm Gold Edition Oct 2, 2013 $9.9974% (89%/83%)100,000 .. 200,0000%00:00 (00:00)
16 Cosmic Trip May 24, 2017 $19.9971% (88%)0 .. 20,0000%00:00 (00:00)
17 Rush for Berlin Gold Oct 29, 2009 $4.9969% (87%/76%)20,000 .. 50,0000%00:00 (00:00)
18 Civilization IV: Warlords Jul 24, 2006 $4.9969% (87%/84%)1,000,000 .. 2,000,0000.22%00:25 (00:16)
19 Sang-Froid - Tales of Werewolves Apr 5, 2013 Free69% (87%/79%)200,000 .. 500,0000.33%00:03 (00:02)
20 Pang Adventures Apr 18, 2016 $9.9969% (87%)20,000 .. 50,0000%00:00 (00:00)
21 Out of Ammo Sep 14, 2016 $14.9966% (86%)20,000 .. 50,0000%00:00 (00:00)
22 Supreme Commander Sep 28, 2011 $12.9966% (86%/86%)500,000 .. 1,000,0000.45%02:22 (03:05)
23 Ground Control Anthology Jul 8, 2015 $4.9966% (86%/86%)20,000 .. 50,0000%00:00 (00:00)
24 Joint Task Force Mar 27, 2007 $4.9963% (85%/68%)20,000 .. 50,0000%00:00 (00:00)
25 Magnifico Dec 2, 2014 $4.9963% (85%)50,000 .. 100,0000%00:00 (00:00)
26 Battle Academy Apr 16, 2014 $14.9963% (85%)20,000 .. 50,0000%00:00 (00:00)
27 Rooks Keep Dec 5, 2014 $7.9963% (85%)20,000 .. 50,0000%00:00 (00:00)
28 Microgons Mar 27, 2017 FreeN/A (N/A)20,000 .. 50,0000%00:00 (00:00)
29 Commandos: Beyond the Call of Duty Mar 15, 2007 $4.9958% (83%)500,000 .. 1,000,0000.16%00:01 (00:00)
30 Space Empires IV Deluxe Feb 7, 2006 $9.9958% (83%/79%)50,000 .. 100,0000%00:00 (00:00)
31 Eador: Genesis Oct 14, 2013 $5.9958% (83%)50,000 .. 100,0000%00:00 (00:00)
32 Cossacks: Art of War Aug 26, 2011 $4.9958% (83%)50,000 .. 100,0000%00:00 (00:00)
33 Ground Control II: Operation Exodus Jul 8, 2015 $4.9956% (82%/80%)20,000 .. 50,0000%00:00 (00:00)
34 Gunman Taco Truck Jan 28, 2017 $2.9956% (82%)0 .. 20,0000%00:00 (00:00)
35 SHOGUN: Total War - Collection Jun 25, 2015 $9.9956% (82%)50,000 .. 100,0000.49%00:01 (00:00)
36 Fantasy Wars Aug 6, 2010 $4.9954% (81%/67%)50,000 .. 100,0000%00:00 (00:00)
37 Men of War: Red Tide Nov 1, 2009 $4.9954% (81%/77%)200,000 .. 500,0000%00:00 (00:00)
38 Tiny Troopers Aug 24, 2012 $4.9954% (81%/57%)100,000 .. 200,0000.53%00:22 (00:07)
39 Supreme Ruler 2020 Gold Jul 9, 2009 $9.9954% (81%/65%)50,000 .. 100,0000%00:00 (00:00)
40 Wyrmsun May 22, 2015 Free54% (81%)20,000 .. 50,0001.04%02:16 (00:45)
41 ROD: Revolt Of Defense Aug 12, 2016 $0.9954% (81%)20,000 .. 50,0000%00:00 (00:00)
42 Locoland May 28, 2015 $4.9951% (80%)0 .. 20,0009.09%01:23 (00:55)
43 Seven Kingdoms 2 HD Feb 4, 2015 $9.9951% (80%)20,000 .. 50,0001.33%04:09 (01:23)
44 Disciples Sacred Lands Gold Oct 7, 2014 $7.9951% (80%)20,000 .. 50,0002.08%00:07 (00:02)
45 Conflict Desert Storm May 28, 2012 $6.9951% (80%/56%)20,000 .. 50,0000%00:00 (00:00)
46 Dwarfs!? May 4, 2011 $9.9951% (80%)200,000 .. 500,0000%00:00 (00:00)
47 Conquest of Elysium 3 Oct 24, 2012 $9.9951% (80%)20,000 .. 50,0000%00:00 (00:00)
48 Perimeter Apr 3, 2014 $3.9951% (80%/77%)20,000 .. 50,0000%00:00 (00:00)
49 Legends of Callasia Jun 10, 2016 Free51% (80%)50,000 .. 100,0000%00:00 (00:00)
50 Fate of the World Feb 28, 2011 $9.9949% (79%/70%)50,000 .. 100,0000%00:00 (00:00)
51 Harvest: Massive Encounter Jan 23, 2009 $7.9949% (79%)20,000 .. 50,0000%00:00 (00:00)
52 Disciples II: Rise of the Elves Jul 6, 2006 $6.9949% (79%/80%)100,000 .. 200,0000%00:00 (00:00)
53 Starscape Nov 3, 2008 $7.9949% (79%)0 .. 20,0000%00:00 (00:00)
54 Demolition Inc. Sep 19, 2011 $5.9949% (79%)50,000 .. 100,0001.19%00:01 (00:00)
55 Heroes of Might & Magic V: Hammers of Fate Oct 10, 2008 $9.9947% (78%/66%)200,000 .. 500,0001.07%00:02 (00:01)
56 Reprisal Universe Sep 15, 2014 $6.9947% (78%)20,000 .. 50,0000.94%00:13 (00:04)
57 Cluck Yegger in Escape From The Planet of The Poultroid Nov 9, 2015 $2.99N/A (N/A)0 .. 20,0000%00:00 (00:00)
58 Praetorians Apr 11, 2014 $4.9945% (77%/78%)50,000 .. 100,0000%00:00 (00:00)
59 Dangerous Waters Feb 7, 2006 $14.9945% (77%/82%)50,000 .. 100,0000%00:00 (00:00)
60 ORB Mar 13, 2014 $4.9945% (77%)0 .. 20,0000%00:00 (00:00)
61 Age of Wonders Oct 2010 $5.9945% (77%)100,000 .. 200,0000%00:00 (00:00)
62 Age of Wonders II: The Wizard's Throne Oct 2010 $9.9945% (77%/86%)50,000 .. 100,0000%00:00 (00:00)
63 Imperium Romanum Gold Edition Nov 25, 2008 $9.9945% (77%/63%)100,000 .. 200,0000%00:00 (00:00)
64 Dominions 3: The Awakening Sep 10, 2013 $19.9945% (77%/82%)0 .. 20,0000%00:00 (00:00)
65 A Healer Only Lives Twice Jun 2, 2016 $4.9944% (76%)0 .. 20,0000%00:00 (00:00)
66 Honey Rose: Underdog Fighter Extraordinaire Sep 29, 2016 FreeN/A (N/A)0 .. 20,0000%00:00 (00:00)
67 Fritz for Fun 13 Dec 10, 2014 $19.99N/A (N/A)0 .. 20,0000%00:00 (00:00)
68 Civil War II Jul 3, 2014 $39.9942% (75%)0 .. 20,0000%00:00 (00:00)
69 World War I Apr 9, 2015 $4.9942% (75%)20,000 .. 50,0000%00:00 (00:00)
70 Perimeter: Emperor's Testament May 22, 2014 $3.99N/A (N/A/72%)20,000 .. 50,0000%00:00 (00:00)
71 WARSHIFT Oct 12, 2016 $12.9940% (74%)20,000 .. 50,0000%00:00 (00:00)
72 Vegas: Make It Big Dec 21, 2006 $4.9940% (74%)20,000 .. 50,0000%00:00 (00:00)
73 Cubemen Mar 16, 2012 $3.9940% (74%/74%)100,000 .. 200,0000.36%00:01 (00:00)
74 TableTop Soccer Apr 22, 2016 $0.9940% (74%)0 .. 20,0004.17%00:23 (00:07)
75 688(I) Hunter/Killer Oct 26, 2006 $9.9940% (74%)20,000 .. 50,0000%00:00 (00:00)
76 Grand Ages: Rome Mar 20, 2009 $9.9938% (73%/72%)200,000 .. 500,0000.4%00:06 (00:02)
77 Battlestations: Midway Mar 15, 2007 $6.9938% (73%/76%)200,000 .. 500,0000.48%00:38 (00:25)
78 Cossacks: European Wars Aug 26, 2011 $4.9938% (73%)100,000 .. 200,0002.63%00:17 (00:14)
79 Desperados: Wanted Dead or Alive Nov 20, 2013 $4.9938% (73%/78%)100,000 .. 200,0001.94%03:48 (03:47)
80 Wildlife Park 2 - Crazy Zoo Jul 17, 2014 $3.99N/A (N/A)20,000 .. 50,0000%00:00 (00:00)
81 AirMech Command Mar 8, 2017 $19.9936% (72%)0 .. 20,0000%00:00 (00:00)
82 Children of Orc Dec 20, 2016 Free36% (72%)0 .. 20,0000%00:00 (00:00)
83 Darwinia Jul 14, 2005 $9.9933% (70%/84%)500,000 .. 1,000,0000%00:00 (00:00)
84 War in a Box: Paper Tanks Jul 4, 2014 $4.9933% (70%)50,000 .. 100,0000%00:00 (00:00)
85 Rome: Total War - Alexander Aug 28, 2007 $4.9933% (70%/79%)500,000 .. 1,000,0000%00:00 (00:00)
86 Brigade E5: New Jagged Union Apr 30, 2014 $3.9933% (70%/41%)0 .. 20,0000%00:00 (00:00)
87 The Nightmare Cooperative Jul 16, 2014 $4.9931% (69%)50,000 .. 100,0000%00:00 (00:00)
88 Cthulhu Realms Jul 1, 2016 Free31% (69%)50,000 .. 100,0000%00:00 (00:00)
89 The Guild Gold Edition Sep 9, 2014 $9.9931% (69%/82%)100,000 .. 200,0000%00:00 (00:00)
90 Alea Jacta Est Nov 4, 2014 $24.99N/A (N/A)0 .. 20,0003.45%00:19 (00:06)
91 Across the Rhine Nov 6, 2014 $6.99N/A (N/A)0 .. 20,0000%00:00 (00:00)
92 American Conquest Aug 26, 2011 $4.9930% (68%)100,000 .. 200,0001.64%00:23 (00:15)
93 Legions of Ashworld Jul 4, 2014 $4.99N/A (N/A)0 .. 20,0000%00:00 (00:00)
94 Void Destroyer Jan 20, 2015 $9.9930% (68%)50,000 .. 100,0000.61%14:13 (04:44)
95 UFO: Aftershock Apr 16, 2014 $3.9930% (68%)50,000 .. 100,0000%00:00 (00:00)
96 Europa Universalis: Rome - Gold Edition Dec 18, 2008 $9.9928% (67%/79%)50,000 .. 100,0002.33%00:21 (00:10)
97 Survivor Squad: Gauntlets Nov 16, 2015 $4.9928% (67%)20,000 .. 50,0000%00:00 (00:00)
98 American Conquest: Fight Back Aug 26, 2011 $4.9928% (67%/66%)100,000 .. 200,0000%00:00 (00:00)
99 Sub Command Oct 26, 2006 $9.99N/A (N/A/84%)20,000 .. 50,0000%00:00 (00:00)
100 Nomad Fleet Apr 19, 2016 $4.9927% (66%)0 .. 20,0000%00:00 (00:00)
101 Men of War: Condemned Heroes Apr 12, 2012 $7.9927% (66%/57%)100,000 .. 200,0000%00:00 (00:00)
102 The Seven Years War (1756-1763) Oct 30, 2015 $19.9926% (65%)0 .. 20,0000%00:00 (00:00)
103 Planets Under Attack Sep 27, 2012 $9.9926% (65%)500,000 .. 1,000,0000.35%02:13 (03:26)
104 Marauder Apr 4, 2014 $9.9926% (65%)20,000 .. 50,0000%00:00 (00:00)
105 Hunters Of The Dead Sep 4, 2014 $4.9924% (64%)20,000 .. 50,0001.54%01:08 (00:22)
106 Port Royale 2 Jun 16, 2009 $4.9923% (63%/75%)50,000 .. 100,0000%00:00 (00:00)
107 Full Spectrum Warrior: Ten Hammers Jul 17, 2007 $9.9923% (63%/70%)100,000 .. 200,0000%00:00 (00:00)
108 UFO: Afterlight Jan 6, 2014 $6.9923% (63%/71%)200,000 .. 500,0000%00:00 (00:00)
109 Crusader Kings Complete Feb 14, 2012 $2.4922% (62%/73%)50,000 .. 100,0000%00:00 (00:00)
110 Crown and Council Apr 22, 2016 Free22% (62%)100,000 .. 200,0000%00:00 (00:00)
111 To End All Wars Aug 29, 2014 $39.9922% (62%/71%)0 .. 20,0000%00:00 (00:00)
112 Maelstrom: The Battle for Earth Begins Feb 13, 2009 $4.9922% (62%/58%)50,000 .. 100,0001.27%01:10 (00:23)
113 Rise: Battle Lines Nov 17, 2015 $1.9922% (62%)0 .. 20,0000%00:00 (00:00)
114 Robin Hood: The Legend of Sherwood Aug 26, 2011 $7.9921% (61%/80%)100,000 .. 200,0001.01%00:12 (00:07)
115 Haegemonia: The Solon Heritage May 1, 2014 $4.9921% (61%)50,000 .. 100,0000%00:00 (00:00)
116 Legions of Steel Jul 16, 2015 $19.99N/A (N/A/64%)0 .. 20,0000%00:00 (00:00)
117 Hydrophobia: Prophecy May 9, 2011 $4.9920% (60%/64%)200,000 .. 500,0000.21%00:01 (00:00)
118 Sudden Strike 3 May 22, 2017 $5.9920% (60%)20,000 .. 50,0000%00:00 (00:00)
119 BattleLore: Command Mar 31, 2015 $6.9920% (60%)0 .. 20,0000%00:00 (00:00)
120 Quarantine May 24, 2017 $9.9918% (59%)0 .. 20,0003.33%00:35 (00:11)
121 Blight of the Immortals Oct 25, 2016 FreeN/A (N/A)20,000 .. 50,0000%00:00 (00:00)
122 Steam 360 Video Player May 10, 2017 Free18% (59%)50,000 .. 100,0000%00:00 (00:00)
123 Achron Aug 29, 2011 $19.99N/A (N/A/54%)0 .. 20,0000%00:00 (00:00)
124 Codename: Panzers - Cold War May 6, 2009 $14.9917% (58%)20,000 .. 50,0000%00:00 (00:00)
125 Crystal Rift Mar 30, 2016 $9.9917% (58%)0 .. 20,0000%00:00 (00:00)
126 Rush for Glory Jun 16, 2014 $14.9917% (58%)50,000 .. 100,0000%00:00 (00:00)
127 Cossacks II: Battle for Europe Aug 26, 2011 $4.9917% (58%/69%)100,000 .. 200,0000%00:00 (00:00)
128 9th Company: Roots Of Terror Dec 3, 2009 $9.9916% (57%)20,000 .. 50,0000%00:00 (00:00)
129 Neocolonialism Dec 1, 2014 $2.99N/A (N/A)0 .. 20,0000%00:00 (00:00)
130 Gratuitous Tank Battles May 17, 2012 $9.9914% (54%/69%)50,000 .. 100,0000%00:00 (00:00)
131 Earth 2140 Nov 15, 2013 $4.9913% (53%)200,000 .. 500,0000.56%16:31 (36:21)
132 BC Kings Jun 16, 2009 $4.9913% (53%)20,000 .. 50,0002.22%00:04 (00:01)
133 Crusaders: Thy Kingdom Come Oct 8, 2009 $9.99N/A (N/A)0 .. 20,0000%00:00 (00:00)
134 Viking: Battle for Asgard Oct 17, 2012 $14.9913% (52%)1,000,000 .. 2,000,0000.06%02:03 (00:41)
135 Space Trader: Merchant Marine Oct 23, 2008 $4.9913% (52%)200,000 .. 500,0000%00:00 (00:00)
136 Red Faction II Aug 6, 2009 $9.9913% (52%/64%)500,000 .. 1,000,0000%00:00 (00:00)
137 Aggression: Europe Under Fire Apr 9, 2014 $9.9912% (51%)0 .. 20,0000%00:00 (00:00)
138 X-COM: Enforcer Sep 4, 2008 $4.9912% (51%/65%)500,000 .. 1,000,0000%00:00 (00:00)
139 Gods vs Humans Oct 10, 2014 $4.9911% (50%)20,000 .. 50,0000%00:00 (00:00)
140 X-COM: Interceptor Sep 4, 2008 $4.9911% (50%)500,000 .. 1,000,0000%00:00 (00:00)
141 Evolution RTS Apr 7, 2014 Free10% (48%)100,000 .. 200,0000%00:00 (00:00)
142 East India Company Jul 31, 2009 $9.9910% (47%/67%)50,000 .. 100,0000%00:00 (00:00)
143 Hero Generations Apr 10, 2015 $5.9910% (47%)0 .. 20,0000%00:00 (00:00)
144 Hell Nov 13, 2014 $29.99N/A (N/A)0 .. 20,0000%00:00 (00:00)
145 Master of Orion 3 Aug 25, 2016 $9.99N/A (N/A/64%)100,000 .. 200,0001.41%01:34 (00:31)
146 XIII Century – Gold Edition Aug 28, 2009 $4.999% (45%)50,000 .. 100,0000%00:00 (00:00)
147 Arms Dealer Mar 26, 2015 $5.999% (45%)0 .. 20,0000%00:00 (00:00)
148 Skyward Collapse May 23, 2013 $4.999% (45%/64%)100,000 .. 200,0000%00:00 (00:00)
149 Master of Magic Chess May 23, 2017 Free8% (44%)0 .. 20,0000%00:00 (00:00)
150 Galactic Civilizations I: Ultimate Edition Aug 14, 2012 $9.998% (44%/83%)200,000 .. 500,0000%00:00 (00:00)
151 Shattered Union Oct 25, 2006 $4.998% (43%/67%)20,000 .. 50,0000%00:00 (00:00)
152 Dungeons Feb 10, 2011 $9.998% (43%/65%)200,000 .. 500,0000%00:00 (00:00)
153 The Fleets of Sol Apr 1, 2016 $8.99N/A (N/A)0 .. 20,0000%00:00 (00:00)
154 Real Warfare 2: Northern Crusades Nov 18, 2011 $4.997% (42%)50,000 .. 100,0000%00:00 (00:00)
155 Two Worlds II Castle Defense Jun 14, 2011 $9.997% (41%)500,000 .. 1,000,0000.25%05:34 (03:42)
156 Ancient Space Sep 23, 2014 $19.997% (40%)20,000 .. 50,0004.92%01:51 (01:50)
157 Cossacks II: Napoleonic Wars Aug 26, 2011 $4.997% (40%)100,000 .. 200,0000%00:00 (00:00)
158 Desperados 2: Cooper's Revenge Mar 12, 2008 $9.997% (40%/66%)50,000 .. 100,0000%00:00 (00:00)
159 Guardians of Graxia Nov 1, 2010 N/A7% (40%)50,000 .. 100,0000.81%00:01 (00:00)
160 Theatre of War 3: Korea Mar 24, 2011 $6.996% (39%/49%)50,000 .. 100,0000%00:00 (00:00)
161 Dungeons - The Dark Lord Sep 27, 2011 $19.996% (38%/72%)100,000 .. 200,0000%00:00 (00:00)
162 Sacraboar Nov 6, 2009 $2.99N/A (N/A)20,000 .. 50,0000%00:00 (00:00)
163 Disciples III - Resurrection Oct 11, 2011 $14.994% (34%/63%)100,000 .. 200,0000.51%01:14 (00:24)
164 Fallen: A2P Protocol Aug 14, 2015 $9.994% (34%)20,000 .. 50,0000%00:00 (00:00)
165 The Game of Life Jun 10, 2013 $9.994% (33%)0 .. 20,0000%00:00 (00:00)
166 Arena Wars 2 Oct 12, 2012 $3.994% (32%)50,000 .. 100,0000%00:00 (00:00)
167 US and THEM Mar 18, 2014 $2.994% (31%)20,000 .. 50,0000%00:00 (00:00)
168 Feudalism Jun 14, 2016 $14.99N/A (N/A)0 .. 20,0000%00:00 (00:00)
169 Tiestru Aug 20, 2014 $9.99N/A (N/A)20,000 .. 50,0000%00:00 (00:00)
170 Genesis Rising Aug 6, 2007 $4.992% (23%/57%)20,000 .. 50,0000%00:00 (00:00)
171 APOX Jan 20, 2011 $14.992% (23%/48%)20,000 .. 50,0000%00:00 (00:00)
172 Perimeter 2: New Earth Feb 10, 2009 $14.992% (20%/43%)0 .. 20,0000%00:00 (00:00)
173 Ironclads: American Civil War Apr 28, 2010 $1.99N/A (N/A)20,000 .. 50,0000%00:00 (00:00)
174 Prison Tycoon 3: Lockdown Jan 29, 2008 $9.992% (17%)20,000 .. 50,0000%00:00 (00:00)
175 Tryst Sep 14, 2012 $14.99N/A (N/A/50%)0 .. 20,0000%00:00 (00:00)
176 Citadels Jul 25, 2013 $14.991% (13%/20%)20,000 .. 50,0000%00:00 (00:00)
177 Spaceforce Constellations Dec 12, 2013 $9.99N/A (N/A)0 .. 20,0000%00:00 (00:00)

Tags over time:

Access restricted.

This feature is only available to users with special access rights. Sorry.

If you want to proceed, you need to register or log in first and then back Steam Spy on Patreon. Look for Indie or Pro pledge.

Don't forget to use the same email as on Steam Spy!

Owners of this game also own:

Access restricted.

This feature is only available to users with special access rights. Sorry.

If you want to proceed, you need to register or log in first and then back Steam Spy on Patreon. Look for Indie or Pro pledge.

Don't forget to use the same email as on Steam Spy!

Playtime distribution:

Access restricted.

This feature is only available to users with special access rights. Sorry.

If you want to proceed, you need to register or log in first and then back Steam Spy on Patreon. Look for Indie or Pro pledge.

Don't forget to use the same email as on Steam Spy!

Playtime (2 weeks):

Access restricted.

This feature is only available to users with special access rights. Sorry.

If you want to proceed, you need to register or log in first and then back Steam Spy on Patreon. Look for Indie or Pro pledge.

Don't forget to use the same email as on Steam Spy!

User reviews:

Login required.

Please register or log in to see this information.